Airports Norway Ă…lesund Airport

Ă…lesund Airport (ENAL / AES)

Facts about Ålesund Airport

Name Ålesund Airport
City Alesund
Country Norway
ICAO code ENAL
IATA code AES
Elevation 21.0312 meters (69 feet)

Weather

METAR

Metar data retrieved Saturday, 20 July 2024 at 00:55 UTC (18 minutes ago)

ENAL 200020Z AUTO 14008KT 9999 BKN060/// 17/13 Q1014

Live traffic

Navigraph Charts (account required)